sensor_id;sensor_type;location;lat;lon;timestamp;temperature;humidity
435;DHT22;204;48.942;9.256;2023-02-01T00:01:40;6.80;1.00
435;DHT22;204;48.942;9.256;2023-02-01T00:04:05;6.90;1.00
435;DHT22;204;48.942;9.256;2023-02-01T00:06:31;6.90;1.00
435;DHT22;204;48.942;9.256;2023-02-01T00:08:57;6.80;1.00
435;DHT22;204;48.942;9.256;2023-02-01T00:11:23;6.80;1.00
435;DHT22;204;48.942;9.256;2023-02-01T00:13:49;6.90;1.00
435;DHT22;204;48.942;9.256;2023-02-01T00:16:24;6.80;1.00
435;DHT22;204;48.942;9.256;2023-02-01T00:18:51;6.90;1.00
435;DHT22;204;48.942;9.256;2023-02-01T00:21:19;6.80;1.00
435;DHT22;204;48.942;9.256;2023-02-01T00:23:46;6.80;1.00
435;DHT22;204;48.942;9.256;2023-02-01T00:26:17;6.70;1.00
435;DHT22;204;48.942;9.256;2023-02-01T00:28:43;6.60;1.00
435;DHT22;204;48.942;9.256;2023-02-01T00:31:09;6.60;1.00
435;DHT22;204;48.942;9.256;2023-02-01T00:33:34;6.60;1.00
435;DHT22;204;48.942;9.256;2023-02-01T00:36:03;6.50;1.00
435;DHT22;204;48.942;9.256;2023-02-01T00:38:29;6.50;1.00
435;DHT22;204;48.942;9.256;2023-02-01T00:41:02;6.60;1.00
435;DHT22;204;48.942;9.256;2023-02-01T00:43:28;6.50;1.00
435;DHT22;204;48.942;9.256;2023-02-01T00:45:55;6.50;1.00
435;DHT22;204;48.942;9.256;2023-02-01T00:48:21;6.50;1.00
435;DHT22;204;48.942;9.256;2023-02-01T00:50:46;6.40;1.00
435;DHT22;204;48.942;9.256;2023-02-01T00:53:12;6.40;1.00
435;DHT22;204;48.942;9.256;2023-02-01T00:55:37;6.40;1.00
435;DHT22;204;48.942;9.256;2023-02-01T00:58:03;6.40;1.00
435;DHT22;204;48.942;9.256;2023-02-01T01:00:31;6.40;1.00
435;DHT22;204;48.942;9.256;2023-02-01T01:02:57;6.40;1.00
435;DHT22;204;48.942;9.256;2023-02-01T01:05:23;6.30;1.00
435;DHT22;204;48.942;9.256;2023-02-01T01:07:49;6.30;1.00
435;DHT22;204;48.942;9.256;2023-02-01T01:10:15;6.20;1.00
435;DHT22;204;48.942;9.256;2023-02-01T01:12:40;6.10;1.00
435;DHT22;204;48.942;9.256;2023-02-01T01:15:07;6.10;1.00
435;DHT22;204;48.942;9.256;2023-02-01T01:17:33;6.10;1.00
435;DHT22;204;48.942;9.256;2023-02-01T01:19:58;6.00;1.00
435;DHT22;204;48.942;9.256;2023-02-01T01:22:24;6.00;1.00
435;DHT22;204;48.942;9.256;2023-02-01T01:24:49;6.00;1.00
435;DHT22;204;48.942;9.256;2023-02-01T01:27:15;6.00;1.00
435;DHT22;204;48.942;9.256;2023-02-01T01:29:41;6.00;1.00
435;DHT22;204;48.942;9.256;2023-02-01T01:32:06;6.00;1.00
435;DHT22;204;48.942;9.256;2023-02-01T01:34:32;6.00;1.00
435;DHT22;204;48.942;9.256;2023-02-01T01:36:57;6.00;1.00
435;DHT22;204;48.942;9.256;2023-02-01T01:39:23;6.00;1.00
435;DHT22;204;48.942;9.256;2023-02-01T01:41:49;6.00;1.00
435;DHT22;204;48.942;9.256;2023-02-01T01:47:18;6.10;1.00
435;DHT22;204;48.942;9.256;2023-02-01T01:49:43;6.10;1.00
435;DHT22;204;48.942;9.256;2023-02-01T01:52:09;6.10;1.00
435;DHT22;204;48.942;9.256;2023-02-01T01:54:38;6.10;1.00
435;DHT22;204;48.942;9.256;2023-02-01T01:57:11;6.10;1.00
435;DHT22;204;48.942;9.256;2023-02-01T01:59:38;6.10;1.00
435;DHT22;204;48.942;9.256;2023-02-01T02:02:05;6.10;1.00
435;DHT22;204;48.942;9.256;2023-02-01T02:04:32;6.20;1.00
435;DHT22;204;48.942;9.256;2023-02-01T02:07:02;6.20;1.00
435;DHT22;204;48.942;9.256;2023-02-01T02:09:29;6.20;1.00
435;DHT22;204;48.942;9.256;2023-02-01T02:11:54;6.20;1.00
435;DHT22;204;48.942;9.256;2023-02-01T02:14:22;6.20;1.00
435;DHT22;204;48.942;9.256;2023-02-01T02:31:01;6.30;1.00
435;DHT22;204;48.942;9.256;2023-02-01T02:45:17;6.20;1.00
435;DHT22;204;48.942;9.256;2023-02-01T02:56:13;6.10;1.00
435;DHT22;204;48.942;9.256;2023-02-01T02:58:59;6.10;1.00
435;DHT22;204;48.942;9.256;2023-02-01T03:01:43;6.10;1.00
435;DHT22;204;48.942;9.256;2023-02-01T03:04:28;6.00;1.00
435;DHT22;204;48.942;9.256;2023-02-01T03:06:54;6.00;1.00
435;DHT22;204;48.942;9.256;2023-02-01T03:11:51;5.90;1.00
435;DHT22;204;48.942;9.256;2023-02-01T03:14:40;5.90;1.00
435;DHT22;204;48.942;9.256;2023-02-01T03:17:14;5.90;1.00
435;DHT22;204;48.942;9.256;2023-02-01T03:19:45;5.80;1.00
435;DHT22;204;48.942;9.256;2023-02-01T03:22:18;5.80;1.00
435;DHT22;204;48.942;9.256;2023-02-01T03:24:47;5.80;1.00
435;DHT22;204;48.942;9.256;2023-02-01T03:27:29;5.80;1.00
435;DHT22;204;48.942;9.256;2023-02-01T03:32:36;5.80;1.00
435;DHT22;204;48.942;9.256;2023-02-01T03:38:21;5.80;1.00
435;DHT22;204;48.942;9.256;2023-02-01T03:41:10;5.90;1.00
435;DHT22;204;48.942;9.256;2023-02-01T03:43:53;5.90;1.00
435;DHT22;204;48.942;9.256;2023-02-01T03:46:25;6.00;1.00
435;DHT22;204;48.942;9.256;2023-02-01T03:48:54;6.00;1.00
435;DHT22;204;48.942;9.256;2023-02-01T03:51:21;6.10;1.00
435;DHT22;204;48.942;9.256;2023-02-01T03:53:48;6.10;1.00
435;DHT22;204;48.942;9.256;2023-02-01T03:56:16;6.20;1.00
435;DHT22;204;48.942;9.256;2023-02-01T03:58:43;6.30;1.00
435;DHT22;204;48.942;9.256;2023-02-01T04:01:23;6.40;1.00
435;DHT22;204;48.942;9.256;2023-02-01T04:03:49;6.40;1.00
435;DHT22;204;48.942;9.256;2023-02-01T04:06:16;6.40;1.00
435;DHT22;204;48.942;9.256;2023-02-01T04:08:42;6.40;1.00
435;DHT22;204;48.942;9.256;2023-02-01T04:11:08;6.40;1.00
435;DHT22;204;48.942;9.256;2023-02-01T04:13:33;6.30;1.00
435;DHT22;204;48.942;9.256;2023-02-01T04:15:59;6.30;1.00
435;DHT22;204;48.942;9.256;2023-02-01T04:18:24;6.30;1.00
435;DHT22;204;48.942;9.256;2023-02-01T04:20:50;6.30;1.00
435;DHT22;204;48.942;9.256;2023-02-01T04:23:15;6.30;1.00
435;DHT22;204;48.942;9.256;2023-02-01T04:25:41;6.30;1.00
435;DHT22;204;48.942;9.256;2023-02-01T04:28:07;6.40;1.00
435;DHT22;204;48.942;9.256;2023-02-01T04:30:32;6.40;1.00
435;DHT22;204;48.942;9.256;2023-02-01T04:32:58;6.40;1.00
435;DHT22;204;48.942;9.256;2023-02-01T04:35:23;6.50;1.00
435;DHT22;204;48.942;9.256;2023-02-01T04:37:49;6.50;1.00
435;DHT22;204;48.942;9.256;2023-02-01T04:40:15;6.50;1.00
435;DHT22;204;48.942;9.256;2023-02-01T04:42:41;6.40;1.00
435;DHT22;204;48.942;9.256;2023-02-01T04:45:07;6.50;1.00
435;DHT22;204;48.942;9.256;2023-02-01T04:47:34;6.50;1.00
435;DHT22;204;48.942;9.256;2023-02-01T04:50:00;6.50;1.00
435;DHT22;204;48.942;9.256;2023-02-01T04:52:25;6.60;1.00
435;DHT22;204;48.942;9.256;2023-02-01T04:54:52;6.60;1.00
435;DHT22;204;48.942;9.256;2023-02-01T04:57:19;6.60;1.00
435;DHT22;204;48.942;9.256;2023-02-01T04:59:45;6.60;1.00
435;DHT22;204;48.942;9.256;2023-02-01T05:02:10;6.60;1.00
435;DHT22;204;48.942;9.256;2023-02-01T05:04:36;6.60;1.00
435;DHT22;204;48.942;9.256;2023-02-01T05:07:02;6.50;1.00
435;DHT22;204;48.942;9.256;2023-02-01T05:09:27;6.50;1.00
435;DHT22;204;48.942;9.256;2023-02-01T05:11:53;6.50;1.00
435;DHT22;204;48.942;9.256;2023-02-01T05:14:37;6.50;1.00
435;DHT22;204;48.942;9.256;2023-02-01T05:17:02;6.50;1.00
435;DHT22;204;48.942;9.256;2023-02-01T05:19:28;6.50;1.00
435;DHT22;204;48.942;9.256;2023-02-01T05:21:53;6.50;1.00
435;DHT22;204;48.942;9.256;2023-02-01T05:24:19;6.50;1.00
435;DHT22;204;48.942;9.256;2023-02-01T05:26:46;6.50;1.00
435;DHT22;204;48.942;9.256;2023-02-01T05:29:13;6.60;1.00
435;DHT22;204;48.942;9.256;2023-02-01T05:31:39;6.60;1.00
435;DHT22;204;48.942;9.256;2023-02-01T05:34:05;6.60;1.00
435;DHT22;204;48.942;9.256;2023-02-01T05:36:31;6.50;1.00
435;DHT22;204;48.942;9.256;2023-02-01T05:38:56;6.50;1.00
435;DHT22;204;48.942;9.256;2023-02-01T05:41:22;6.40;1.00
435;DHT22;204;48.942;9.256;2023-02-01T05:43:47;6.40;1.00
435;DHT22;204;48.942;9.256;2023-02-01T05:46:13;6.50;1.00
435;DHT22;204;48.942;9.256;2023-02-01T05:48:40;6.50;1.00
435;DHT22;204;48.942;9.256;2023-02-01T05:51:05;6.50;1.00
435;DHT22;204;48.942;9.256;2023-02-01T05:53:31;6.50;1.00
435;DHT22;204;48.942;9.256;2023-02-01T05:55:57;6.50;1.00
435;DHT22;204;48.942;9.256;2023-02-01T05:58:22;6.60;1.00
435;DHT22;204;48.942;9.256;2023-02-01T06:00:48;6.60;1.00
435;DHT22;204;48.942;9.256;2023-02-01T06:03:14;6.60;1.00
435;DHT22;204;48.942;9.256;2023-02-01T06:05:39;6.70;1.00
435;DHT22;204;48.942;9.256;2023-02-01T06:08:05;6.70;1.00
435;DHT22;204;48.942;9.256;2023-02-01T06:10:33;6.70;1.00
435;DHT22;204;48.942;9.256;2023-02-01T06:12:58;6.70;1.00
435;DHT22;204;48.942;9.256;2023-02-01T06:15:24;6.70;1.00
435;DHT22;204;48.942;9.256;2023-02-01T06:17:50;6.70;1.00
435;DHT22;204;48.942;9.256;2023-02-01T06:20:16;6.70;1.00
435;DHT22;204;48.942;9.256;2023-02-01T06:22:41;6.70;1.00
435;DHT22;204;48.942;9.256;2023-02-01T06:25:08;6.70;1.00
435;DHT22;204;48.942;9.256;2023-02-01T06:27:35;6.70;1.00
435;DHT22;204;48.942;9.256;2023-02-01T06:30:02;6.70;1.00
435;DHT22;204;48.942;9.256;2023-02-01T06:32:28;6.70;1.00
435;DHT22;204;48.942;9.256;2023-02-01T06:34:53;6.70;1.00
435;DHT22;204;48.942;9.256;2023-02-01T06:37:20;6.70;1.00
435;DHT22;204;48.942;9.256;2023-02-01T06:39:46;6.70;1.00
435;DHT22;204;48.942;9.256;2023-02-01T06:42:12;6.70;1.00
435;DHT22;204;48.942;9.256;2023-02-01T06:44:37;6.70;1.00
435;DHT22;204;48.942;9.256;2023-02-01T06:47:03;6.60;1.00
435;DHT22;204;48.942;9.256;2023-02-01T06:49:29;6.60;1.00
435;DHT22;204;48.942;9.256;2023-02-01T06:51:55;6.70;1.00
435;DHT22;204;48.942;9.256;2023-02-01T06:54:20;6.70;1.00
435;DHT22;204;48.942;9.256;2023-02-01T06:56:46;6.60;1.00
435;DHT22;204;48.942;9.256;2023-02-01T06:59:12;6.70;1.00
435;DHT22;204;48.942;9.256;2023-02-01T07:01:38;6.70;1.00
435;DHT22;204;48.942;9.256;2023-02-01T07:04:03;6.70;1.00
435;DHT22;204;48.942;9.256;2023-02-01T07:06:29;6.70;1.00
435;DHT22;204;48.942;9.256;2023-02-01T07:08:55;6.70;1.00
435;DHT22;204;48.942;9.256;2023-02-01T07:11:21;6.70;1.00
435;DHT22;204;48.942;9.256;2023-02-01T07:13:47;6.70;1.00
435;DHT22;204;48.942;9.256;2023-02-01T07:16:16;6.60;1.00
435;DHT22;204;48.942;9.256;2023-02-01T07:18:42;6.50;1.00
435;DHT22;204;48.942;9.256;2023-02-01T07:21:08;6.60;1.00
435;DHT22;204;48.942;9.256;2023-02-01T07:23:34;6.50;1.00
435;DHT22;204;48.942;9.256;2023-02-01T07:26:02;6.50;1.00
435;DHT22;204;48.942;9.256;2023-02-01T07:28:30;6.50;1.00
435;DHT22;204;48.942;9.256;2023-02-01T07:31:05;6.50;1.00
435;DHT22;204;48.942;9.256;2023-02-01T07:33:32;6.50;1.00
435;DHT22;204;48.942;9.256;2023-02-01T07:35:57;6.60;1.00
435;DHT22;204;48.942;9.256;2023-02-01T07:38:25;6.50;1.00
435;DHT22;204;48.942;9.256;2023-02-01T07:40:51;6.50;1.00
435;DHT22;204;48.942;9.256;2023-02-01T07:43:16;6.50;1.00
435;DHT22;204;48.942;9.256;2023-02-01T07:45:42;6.40;1.00
435;DHT22;204;48.942;9.256;2023-02-01T07:48:07;6.30;1.00
435;DHT22;204;48.942;9.256;2023-02-01T07:50:33;6.30;1.00
435;DHT22;204;48.942;9.256;2023-02-01T07:53:00;6.20;1.00
435;DHT22;204;48.942;9.256;2023-02-01T07:55:26;6.30;1.00
435;DHT22;204;48.942;9.256;2023-02-01T07:57:52;6.30;1.00
435;DHT22;204;48.942;9.256;2023-02-01T08:00:18;6.30;1.00
435;DHT22;204;48.942;9.256;2023-02-01T08:03:04;6.40;1.00
435;DHT22;204;48.942;9.256;2023-02-01T08:05:30;6.50;1.00
435;DHT22;204;48.942;9.256;2023-02-01T08:07:55;6.50;1.00
435;DHT22;204;48.942;9.256;2023-02-01T08:10:21;6.50;1.00
435;DHT22;204;48.942;9.256;2023-02-01T08:12:47;6.50;1.00
435;DHT22;204;48.942;9.256;2023-02-01T08:15:14;6.50;1.00
435;DHT22;204;48.942;9.256;2023-02-01T08:17:50;6.50;1.00
435;DHT22;204;48.942;9.256;2023-02-01T08:20:16;6.60;1.00
435;DHT22;204;48.942;9.256;2023-02-01T08:22:42;6.60;1.00
435;DHT22;204;48.942;9.256;2023-02-01T08:25:08;6.70;1.00
435;DHT22;204;48.942;9.256;2023-02-01T08:27:34;6.70;1.00
435;DHT22;204;48.942;9.256;2023-02-01T08:29:59;6.80;1.00
435;DHT22;204;48.942;9.256;2023-02-01T08:32:26;6.80;1.00
435;DHT22;204;48.942;9.256;2023-02-01T08:34:52;6.90;1.00
435;DHT22;204;48.942;9.256;2023-02-01T08:37:17;7.00;1.00
435;DHT22;204;48.942;9.256;2023-02-01T08:39:43;7.00;1.00
435;DHT22;204;48.942;9.256;2023-02-01T08:42:10;7.10;1.00
435;DHT22;204;48.942;9.256;2023-02-01T08:44:55;7.10;1.00
435;DHT22;204;48.942;9.256;2023-02-01T08:47:20;7.00;1.00
435;DHT22;204;48.942;9.256;2023-02-01T08:49:46;7.00;1.00
435;DHT22;204;48.942;9.256;2023-02-01T08:52:12;7.10;1.00
435;DHT22;204;48.942;9.256;2023-02-01T08:54:37;7.10;1.00
435;DHT22;204;48.942;9.256;2023-02-01T08:57:05;7.20;1.00
435;DHT22;204;48.942;9.256;2023-02-01T08:59:31;7.30;1.00
435;DHT22;204;48.942;9.256;2023-02-01T09:01:56;7.30;1.00
435;DHT22;204;48.942;9.256;2023-02-01T09:04:22;7.30;1.00
435;DHT22;204;48.942;9.256;2023-02-01T09:06:47;7.30;1.00
435;DHT22;204;48.942;9.256;2023-02-01T09:09:13;7.20;1.00
435;DHT22;204;48.942;9.256;2023-02-01T09:11:38;7.20;1.00
435;DHT22;204;48.942;9.256;2023-02-01T09:14:04;7.30;1.00
435;DHT22;204;48.942;9.256;2023-02-01T09:16:29;7.30;1.00
435;DHT22;204;48.942;9.256;2023-02-01T09:18:55;7.40;1.00
435;DHT22;204;48.942;9.256;2023-02-01T09:21:21;7.50;1.00
435;DHT22;204;48.942;9.256;2023-02-01T09:23:46;7.60;1.00
435;DHT22;204;48.942;9.256;2023-02-01T09:26:14;7.70;1.00
435;DHT22;204;48.942;9.256;2023-02-01T09:28:40;7.80;1.00
435;DHT22;204;48.942;9.256;2023-02-01T09:31:05;7.90;1.00
435;DHT22;204;48.942;9.256;2023-02-01T09:33:31;8.00;1.00
435;DHT22;204;48.942;9.256;2023-02-01T09:36:01;8.20;1.00
435;DHT22;204;48.942;9.256;2023-02-01T09:38:28;8.20;1.00
435;DHT22;204;48.942;9.256;2023-02-01T09:40:55;8.20;1.00
435;DHT22;204;48.942;9.256;2023-02-01T09:43:48;8.10;1.00
435;DHT22;204;48.942;9.256;2023-02-01T09:46:18;8.00;1.00
435;DHT22;204;48.942;9.256;2023-02-01T09:48:45;7.90;1.00
435;DHT22;204;48.942;9.256;2023-02-01T09:51:18;8.00;1.00
435;DHT22;204;48.942;9.256;2023-02-01T09:54:00;8.10;1.00
435;DHT22;204;48.942;9.256;2023-02-01T09:56:35;8.00;1.00
435;DHT22;204;48.942;9.256;2023-02-01T10:01:38;8.10;1.00
435;DHT22;204;48.942;9.256;2023-02-01T10:04:14;8.10;1.00
435;DHT22;204;48.942;9.256;2023-02-01T10:06:57;8.10;1.00
435;DHT22;204;48.942;9.256;2023-02-01T10:28:22;8.40;1.00
435;DHT22;204;48.942;9.256;2023-02-01T10:30:54;8.50;1.00
435;DHT22;204;48.942;9.256;2023-02-01T10:33:33;8.50;1.00
435;DHT22;204;48.942;9.256;2023-02-01T10:38:51;8.60;1.00
435;DHT22;204;48.942;9.256;2023-02-01T10:41:20;8.70;1.00
435;DHT22;204;48.942;9.256;2023-02-01T10:43:50;8.70;1.00
435;DHT22;204;48.942;9.256;2023-02-01T10:46:18;8.60;1.00
435;DHT22;204;48.942;9.256;2023-02-01T10:48:44;8.50;1.00
435;DHT22;204;48.942;9.256;2023-02-01T10:53:47;8.40;1.00
435;DHT22;204;48.942;9.256;2023-02-01T10:56:25;8.30;1.00
435;DHT22;204;48.942;9.256;2023-02-01T10:58:58;8.20;1.00
435;DHT22;204;48.942;9.256;2023-02-01T11:01:31;8.20;1.00
435;DHT22;204;48.942;9.256;2023-02-01T11:04:01;8.20;1.00
435;DHT22;204;48.942;9.256;2023-02-01T11:06:36;8.30;1.00
435;DHT22;204;48.942;9.256;2023-02-01T11:16:49;8.40;1.00
435;DHT22;204;48.942;9.256;2023-02-01T11:19:16;8.50;1.00
435;DHT22;204;48.942;9.256;2023-02-01T11:21:43;8.50;1.00
435;DHT22;204;48.942;9.256;2023-02-01T11:24:26;8.50;1.00
435;DHT22;204;48.942;9.256;2023-02-01T11:26:58;8.50;1.00
435;DHT22;204;48.942;9.256;2023-02-01T11:29:35;8.50;1.00
435;DHT22;204;48.942;9.256;2023-02-01T11:32:02;8.50;1.00
435;DHT22;204;48.942;9.256;2023-02-01T11:34:45;8.50;1.00
435;DHT22;204;48.942;9.256;2023-02-01T11:37:38;8.50;1.00
435;DHT22;204;48.942;9.256;2023-02-01T11:43:51;8.40;1.00
435;DHT22;204;48.942;9.256;2023-02-01T11:46:18;8.50;1.00
435;DHT22;204;48.942;9.256;2023-02-01T11:48:51;8.50;1.00
435;DHT22;204;48.942;9.256;2023-02-01T12:21:36;8.50;1.00
435;DHT22;204;48.942;9.256;2023-02-01T12:26:58;8.40;1.00
435;DHT22;204;48.942;9.256;2023-02-01T12:29:56;8.30;1.00
435;DHT22;204;48.942;9.256;2023-02-01T12:43:12;8.30;1.00
435;DHT22;204;48.942;9.256;2023-02-01T12:46:02;8.30;1.00
435;DHT22;204;48.942;9.256;2023-02-01T12:49:05;8.30;1.00
435;DHT22;204;48.942;9.256;2023-02-01T12:51:27;8.30;1.00
435;DHT22;204;48.942;9.256;2023-02-01T12:54:00;8.30;1.00
435;DHT22;204;48.942;9.256;2023-02-01T12:56:43;8.30;1.00
435;DHT22;204;48.942;9.256;2023-02-01T12:59:34;8.20;1.00
435;DHT22;204;48.942;9.256;2023-02-01T13:02:11;8.30;1.00
435;DHT22;204;48.942;9.256;2023-02-01T13:05:05;8.30;1.00
435;DHT22;204;48.942;9.256;2023-02-01T13:07:38;8.30;1.00
435;DHT22;204;48.942;9.256;2023-02-01T13:13:07;8.50;1.00
435;DHT22;204;48.942;9.256;2023-02-01T13:15:44;8.50;1.00
435;DHT22;204;48.942;9.256;2023-02-01T13:18:18;8.40;1.00
435;DHT22;204;48.942;9.256;2023-02-01T13:20:55;8.30;1.00
435;DHT22;204;48.942;9.256;2023-02-01T13:23:45;8.30;1.00
435;DHT22;204;48.942;9.256;2023-02-01T13:26:12;8.30;1.00
435;DHT22;204;48.942;9.256;2023-02-01T13:29:10;8.20;1.00
435;DHT22;204;48.942;9.256;2023-02-01T13:36:51;8.00;1.00
435;DHT22;204;48.942;9.256;2023-02-01T13:39:28;7.90;1.00
435;DHT22;204;48.942;9.256;2023-02-01T13:42:23;7.90;1.00
435;DHT22;204;48.942;9.256;2023-02-01T13:45:12;7.90;1.00
435;DHT22;204;48.942;9.256;2023-02-01T13:47:42;7.90;1.00
435;DHT22;204;48.942;9.256;2023-02-01T13:50:29;7.90;1.00
435;DHT22;204;48.942;9.256;2023-02-01T14:03:48;8.00;1.00
435;DHT22;204;48.942;9.256;2023-02-01T14:11:52;8.10;1.00
435;DHT22;204;48.942;9.256;2023-02-01T14:17:29;8.00;1.00
435;DHT22;204;48.942;9.256;2023-02-01T14:23:20;7.90;1.00
435;DHT22;204;48.942;9.256;2023-02-01T14:25:48;7.80;1.00
435;DHT22;204;48.942;9.256;2023-02-01T14:28:28;7.80;1.00
435;DHT22;204;48.942;9.256;2023-02-01T14:30:56;7.80;1.00
435;DHT22;204;48.942;9.256;2023-02-01T14:33:25;7.70;1.00
435;DHT22;204;48.942;9.256;2023-02-01T14:36:18;7.70;1.00
435;DHT22;204;48.942;9.256;2023-02-01T14:38:48;7.60;1.00
435;DHT22;204;48.942;9.256;2023-02-01T14:41:30;7.60;1.00
435;DHT22;204;48.942;9.256;2023-02-01T14:47:06;7.60;1.00
435;DHT22;204;48.942;9.256;2023-02-01T14:49:33;7.50;1.00
435;DHT22;204;48.942;9.256;2023-02-01T14:52:00;7.50;1.00
435;DHT22;204;48.942;9.256;2023-02-01T14:54:28;7.50;1.00
435;DHT22;204;48.942;9.256;2023-02-01T14:56:54;7.50;1.00
435;DHT22;204;48.942;9.256;2023-02-01T14:59:22;7.50;1.00
435;DHT22;204;48.942;9.256;2023-02-01T15:01:58;7.50;1.00
435;DHT22;204;48.942;9.256;2023-02-01T15:04:26;7.50;1.00
435;DHT22;204;48.942;9.256;2023-02-01T15:07:05;7.60;1.00
435;DHT22;204;48.942;9.256;2023-02-01T15:09:33;7.50;1.00
435;DHT22;204;48.942;9.256;2023-02-01T15:12:04;7.50;1.00
435;DHT22;204;48.942;9.256;2023-02-01T15:14:35;7.50;1.00
435;DHT22;204;48.942;9.256;2023-02-01T15:17:02;7.50;1.00
435;DHT22;204;48.942;9.256;2023-02-01T15:19:29;7.50;1.00
435;DHT22;204;48.942;9.256;2023-02-01T15:21:57;7.50;1.00
435;DHT22;204;48.942;9.256;2023-02-01T15:24:24;7.50;1.00
435;DHT22;204;48.942;9.256;2023-02-01T15:26:52;7.50;1.00
435;DHT22;204;48.942;9.256;2023-02-01T15:29:19;7.50;1.00
435;DHT22;204;48.942;9.256;2023-02-01T15:31:48;7.50;1.00
435;DHT22;204;48.942;9.256;2023-02-01T15:34:14;7.50;1.00
435;DHT22;204;48.942;9.256;2023-02-01T15:36:40;7.50;1.00
435;DHT22;204;48.942;9.256;2023-02-01T15:42:11;7.40;1.00
435;DHT22;204;48.942;9.256;2023-02-01T15:44:45;7.40;1.00
435;DHT22;204;48.942;9.256;2023-02-01T15:47:29;7.50;1.00
435;DHT22;204;48.942;9.256;2023-02-01T15:49:58;7.50;1.00
435;DHT22;204;48.942;9.256;2023-02-01T15:55:02;7.50;1.00
435;DHT22;204;48.942;9.256;2023-02-01T15:57:34;7.50;1.00
435;DHT22;204;48.942;9.256;2023-02-01T16:00:08;7.50;1.00
435;DHT22;204;48.942;9.256;2023-02-01T16:02:52;7.40;1.00
435;DHT22;204;48.942;9.256;2023-02-01T16:08:10;7.40;1.00
435;DHT22;204;48.942;9.256;2023-02-01T16:10:45;7.40;1.00
435;DHT22;204;48.942;9.256;2023-02-01T16:13:12;7.30;1.00
435;DHT22;204;48.942;9.256;2023-02-01T16:15:38;7.40;1.00
435;DHT22;204;48.942;9.256;2023-02-01T16:18:04;7.30;1.00
435;DHT22;204;48.942;9.256;2023-02-01T16:20:30;7.40;1.00
435;DHT22;204;48.942;9.256;2023-02-01T16:22:56;7.40;1.00
435;DHT22;204;48.942;9.256;2023-02-01T16:25:21;7.30;1.00
435;DHT22;204;48.942;9.256;2023-02-01T16:27:47;7.30;1.00
435;DHT22;204;48.942;9.256;2023-02-01T16:30:13;7.30;1.00
435;DHT22;204;48.942;9.256;2023-02-01T16:32:39;7.30;1.00
435;DHT22;204;48.942;9.256;2023-02-01T16:35:21;7.30;1.00
435;DHT22;204;48.942;9.256;2023-02-01T16:37:48;7.30;1.00
435;DHT22;204;48.942;9.256;2023-02-01T16:40:18;7.30;1.00
435;DHT22;204;48.942;9.256;2023-02-01T16:42:45;7.30;1.00
435;DHT22;204;48.942;9.256;2023-02-01T16:45:11;7.30;1.00
435;DHT22;204;48.942;9.256;2023-02-01T16:47:38;7.30;1.00
435;DHT22;204;48.942;9.256;2023-02-01T16:50:15;7.20;1.00
435;DHT22;204;48.942;9.256;2023-02-01T16:52:42;7.10;1.00
435;DHT22;204;48.942;9.256;2023-02-01T16:55:13;7.00;1.00
435;DHT22;204;48.942;9.256;2023-02-01T16:57:41;7.00;1.00
435;DHT22;204;48.942;9.256;2023-02-01T17:00:08;7.00;1.00
435;DHT22;204;48.942;9.256;2023-02-01T17:02:34;7.00;1.00
435;DHT22;204;48.942;9.256;2023-02-01T17:05:00;7.00;1.00
435;DHT22;204;48.942;9.256;2023-02-01T17:07:26;7.00;1.00
435;DHT22;204;48.942;9.256;2023-02-01T17:09:52;7.00;1.00
435;DHT22;204;48.942;9.256;2023-02-01T17:12:28;7.00;1.00
435;DHT22;204;48.942;9.256;2023-02-01T17:14:55;7.00;1.00
435;DHT22;204;48.942;9.256;2023-02-01T17:17:22;7.00;1.00
435;DHT22;204;48.942;9.256;2023-02-01T17:19:50;7.00;1.00
435;DHT22;204;48.942;9.256;2023-02-01T17:22:18;7.00;1.00
435;DHT22;204;48.942;9.256;2023-02-01T17:24:44;7.10;1.00
435;DHT22;204;48.942;9.256;2023-02-01T17:27:09;7.10;1.00
435;DHT22;204;48.942;9.256;2023-02-01T17:29:35;7.10;1.00
435;DHT22;204;48.942;9.256;2023-02-01T17:32:01;7.10;1.00
435;DHT22;204;48.942;9.256;2023-02-01T17:34:27;7.20;1.00
435;DHT22;204;48.942;9.256;2023-02-01T17:36:53;7.20;1.00
435;DHT22;204;48.942;9.256;2023-02-01T17:39:19;7.20;1.00
435;DHT22;204;48.942;9.256;2023-02-01T17:42:04;7.20;1.00
435;DHT22;204;48.942;9.256;2023-02-01T17:44:31;7.20;1.00
435;DHT22;204;48.942;9.256;2023-02-01T17:46:57;7.20;1.00
435;DHT22;204;48.942;9.256;2023-02-01T17:49:24;7.20;1.00
435;DHT22;204;48.942;9.256;2023-02-01T17:51:50;7.20;1.00
435;DHT22;204;48.942;9.256;2023-02-01T17:54:16;7.20;1.00
435;DHT22;204;48.942;9.256;2023-02-01T17:56:44;7.20;1.00
435;DHT22;204;48.942;9.256;2023-02-01T17:59:10;7.20;1.00
435;DHT22;204;48.942;9.256;2023-02-01T18:01:35;7.30;1.00
435;DHT22;204;48.942;9.256;2023-02-01T18:04:02;7.30;1.00
435;DHT22;204;48.942;9.256;2023-02-01T18:06:32;7.30;1.00
435;DHT22;204;48.942;9.256;2023-02-01T18:08:58;7.20;1.00
435;DHT22;204;48.942;9.256;2023-02-01T18:11:24;7.30;1.00
435;DHT22;204;48.942;9.256;2023-02-01T18:13:51;7.30;1.00
435;DHT22;204;48.942;9.256;2023-02-01T18:16:23;7.30;1.00
435;DHT22;204;48.942;9.256;2023-02-01T18:18:49;7.30;1.00
435;DHT22;204;48.942;9.256;2023-02-01T18:21:16;7.30;1.00
435;DHT22;204;48.942;9.256;2023-02-01T18:23:43;7.30;1.00
435;DHT22;204;48.942;9.256;2023-02-01T18:26:13;7.30;1.00
435;DHT22;204;48.942;9.256;2023-02-01T18:28:38;7.30;1.00
435;DHT22;204;48.942;9.256;2023-02-01T18:31:05;7.30;1.00
435;DHT22;204;48.942;9.256;2023-02-01T18:33:31;7.30;1.00
435;DHT22;204;48.942;9.256;2023-02-01T18:35:57;7.30;1.00
435;DHT22;204;48.942;9.256;2023-02-01T18:38:23;7.20;1.00
435;DHT22;204;48.942;9.256;2023-02-01T18:40:53;7.20;1.00
435;DHT22;204;48.942;9.256;2023-02-01T18:43:20;7.20;1.00
435;DHT22;204;48.942;9.256;2023-02-01T18:45:46;7.20;1.00
435;DHT22;204;48.942;9.256;2023-02-01T18:48:15;7.20;1.00
435;DHT22;204;48.942;9.256;2023-02-01T18:50:43;7.20;1.00
435;DHT22;204;48.942;9.256;2023-02-01T18:53:17;7.20;1.00
435;DHT22;204;48.942;9.256;2023-02-01T18:55:48;7.20;1.00
435;DHT22;204;48.942;9.256;2023-02-01T18:58:15;7.20;1.00
435;DHT22;204;48.942;9.256;2023-02-01T19:00:42;7.20;1.00
435;DHT22;204;48.942;9.256;2023-02-01T19:03:18;7.20;1.00
435;DHT22;204;48.942;9.256;2023-02-01T19:05:45;7.20;1.00
435;DHT22;204;48.942;9.256;2023-02-01T19:08:10;7.20;1.00
435;DHT22;204;48.942;9.256;2023-02-01T19:10:36;7.30;1.00
435;DHT22;204;48.942;9.256;2023-02-01T19:13:04;7.20;1.00
435;DHT22;204;48.942;9.256;2023-02-01T19:15:31;7.20;1.00
435;DHT22;204;48.942;9.256;2023-02-01T19:17:59;7.20;1.00
435;DHT22;204;48.942;9.256;2023-02-01T19:20:25;7.20;1.00
435;DHT22;204;48.942;9.256;2023-02-01T19:22:52;7.20;1.00
435;DHT22;204;48.942;9.256;2023-02-01T19:25:21;7.10;1.00
435;DHT22;204;48.942;9.256;2023-02-01T19:27:48;7.10;1.00
435;DHT22;204;48.942;9.256;2023-02-01T19:30:14;7.20;1.00
435;DHT22;204;48.942;9.256;2023-02-01T19:32:40;7.20;1.00
435;DHT22;204;48.942;9.256;2023-02-01T19:35:07;7.20;1.00
435;DHT22;204;48.942;9.256;2023-02-01T19:37:34;7.20;1.00
435;DHT22;204;48.942;9.256;2023-02-01T19:39:59;7.20;1.00
435;DHT22;204;48.942;9.256;2023-02-01T19:42:25;7.20;1.00
435;DHT22;204;48.942;9.256;2023-02-01T19:44:51;7.20;1.00
435;DHT22;204;48.942;9.256;2023-02-01T19:47:17;7.20;1.00
435;DHT22;204;48.942;9.256;2023-02-01T19:49:43;7.20;1.00
435;DHT22;204;48.942;9.256;2023-02-01T19:52:09;7.20;1.00
435;DHT22;204;48.942;9.256;2023-02-01T19:54:34;7.20;1.00
435;DHT22;204;48.942;9.256;2023-02-01T19:57:00;7.20;1.00
435;DHT22;204;48.942;9.256;2023-02-01T19:59:26;7.20;1.00
435;DHT22;204;48.942;9.256;2023-02-01T20:01:51;7.10;1.00
435;DHT22;204;48.942;9.256;2023-02-01T20:04:18;7.20;1.00
435;DHT22;204;48.942;9.256;2023-02-01T20:06:45;7.20;1.00
435;DHT22;204;48.942;9.256;2023-02-01T20:09:26;7.20;1.00
435;DHT22;204;48.942;9.256;2023-02-01T20:11:55;7.20;1.00